Time;durP1;ratioP1;P1;durP2;ratioP2;P2;SDS_P1;SDS_P2;PMS_P1;PMS_P2;Temp;Humidity;BMP_temperature;BMP_pressure;BME280_temperature;BME280_humidity;BME280_pressure;Samples;Min_cycle;Max_cycle;Signal;HPM_P1;HPM_P2
2023/05/14 00:00:14;;;;;;;7.97;7.47;;;13.20;59.40;;;;;;6196742;28;20669;-82
2023/05/14 00:03:17;;;;;;;8.03;7.60;;;13.10;59.50;;;;;;6200343;28;20228;-83
2023/05/14 00:06:20;;;;;;;7.87;7.37;;;13.10;59.50;;;;;;6205936;28;20794;-81
2023/05/14 00:09:24;;;;;;;7.73;7.33;;;13.10;59.50;;;;;;6204892;28;20242;-81
2023/05/14 00:12:28;;;;;;;7.90;7.30;;;13.10;59.50;;;;;;6204267;28;20239;-80
2023/05/14 00:15:31;;;;;;;7.87;7.40;;;13.10;59.50;;;;;;6207111;28;20620;-81
2023/05/14 00:18:36;;;;;;;7.60;7.10;;;13.10;59.50;;;;;;6202776;28;20363;-81
2023/05/14 00:21:39;;;;;;;7.20;6.80;;;13.10;59.40;;;;;;6196078;28;20889;-82
2023/05/14 00:24:46;;;;;;;7.17;6.80;;;13.00;59.40;;;;;;6200543;28;20231;-80
2023/05/14 00:27:49;;;;;;;6.90;6.50;;;13.00;59.50;;;;;;6209176;28;20297;-80
2023/05/14 00:30:53;;;;;;;6.97;6.63;;;13.00;59.60;;;;;;6196426;28;20377;-82
2023/05/14 00:33:57;;;;;;;7.10;6.67;;;13.00;59.50;;;;;;6200838;28;20240;-80
2023/05/14 00:37:00;;;;;;;7.43;7.13;;;12.90;59.60;;;;;;6189481;28;20283;-81
2023/05/14 00:40:07;;;;;;;7.50;7.17;;;12.90;59.70;;;;;;6198489;28;20370;-82
2023/05/14 00:43:10;;;;;;;7.53;7.00;;;12.90;59.70;;;;;;6207187;28;20236;-83
2023/05/14 00:46:14;;;;;;;7.73;7.23;;;12.90;59.80;;;;;;6196247;28;20313;-82
2023/05/14 00:49:18;;;;;;;7.57;7.07;;;12.90;59.90;;;;;;6198957;28;20298;-81
2023/05/14 00:52:21;;;;;;;8.23;7.60;;;12.90;60.00;;;;;;6198744;28;20242;-81
2023/05/14 00:55:26;;;;;;;7.77;7.23;;;12.80;59.90;;;;;;6205183;28;20242;-81
2023/05/14 00:58:30;;;;;;;7.27;6.87;;;12.90;60.00;;;;;;6206019;28;20359;-82
2023/05/14 01:01:35;;;;;;;7.67;7.10;;;12.90;60.00;;;;;;6191560;28;20791;-81
2023/05/14 01:04:38;;;;;;;8.73;8.00;;;12.90;60.00;;;;;;6200684;28;20227;-81
2023/05/14 01:07:52;;;;;;;8.23;7.77;;;12.90;59.90;;;;;;6198467;28;20255;-78
2023/05/14 01:11:03;;;;;;;7.40;7.00;;;12.90;59.80;;;;;;6186320;28;20343;-81
2023/05/14 01:14:21;;;;;;;7.97;7.50;;;12.90;59.70;;;;;;6185898;28;20242;-84
2023/05/14 01:17:28;;;;;;;7.93;7.33;;;12.90;59.60;;;;;;6187397;28;20237;-81
2023/05/14 01:20:31;;;;;;;7.83;7.33;;;12.80;59.50;;;;;;6196558;28;20703;-82
2023/05/14 01:23:36;;;;;;;7.70;7.30;;;12.80;59.40;;;;;;6212940;28;20280;-83
2023/05/14 01:26:39;;;;;;;7.23;6.73;;;12.90;59.40;;;;;;6203985;28;20228;-82
2023/05/14 01:29:47;;;;;;;7.50;7.13;;;12.80;59.20;;;;;;6172953;28;20270;-83
2023/05/14 01:32:55;;;;;;;7.93;7.37;;;12.80;59.10;;;;;;6199231;28;20244;-82
2023/05/14 01:35:58;;;;;;;7.13;6.87;;;12.80;59.00;;;;;;6212511;28;20251;-81
2023/05/14 01:39:04;;;;;;;7.47;7.00;;;12.80;58.90;;;;;;6220922;28;20234;-79
2023/05/14 01:42:07;;;;;;;6.47;6.17;;;12.80;59.00;;;;;;6235554;28;20343;-81
2023/05/14 01:45:11;;;;;;;6.97;6.37;;;12.70;58.80;;;;;;6250117;28;20266;-80
2023/05/14 01:48:15;;;;;;;7.60;7.03;;;12.70;58.70;;;;;;6240168;28;20247;-80
2023/05/14 01:51:18;;;;;;;6.93;6.53;;;12.70;58.90;;;;;;6208347;28;20655;-79
2023/05/14 01:54:22;;;;;;;6.17;5.87;;;12.70;58.80;;;;;;6240374;28;20302;-78
2023/05/14 01:57:26;;;;;;;7.30;6.90;;;12.70;58.70;;;;;;6244651;28;20251;-79
2023/05/14 02:00:29;;;;;;;7.97;7.13;;;12.70;58.70;;;;;;6249966;28;20254;-78
2023/05/14 02:03:32;;;;;;;6.80;6.50;;;12.70;58.60;;;;;;6232411;28;20231;-78
2023/05/14 02:06:35;;;;;;;8.23;7.43;;;12.80;58.40;;;;;;6232817;28;20254;-79
2023/05/14 02:09:40;;;;;;;7.07;6.67;;;12.80;58.00;;;;;;6240417;28;20228;-79
2023/05/14 02:12:43;;;;;;;7.63;7.23;;;12.90;57.30;;;;;;6236178;28;20223;-80
2023/05/14 02:15:46;;;;;;;7.80;7.20;;;13.10;56.70;;;;;;6219777;28;20242;-79
2023/05/14 02:18:49;;;;;;;6.53;6.23;;;13.10;56.70;;;;;;6213622;28;20339;-80
2023/05/14 02:21:52;;;;;;;7.50;7.00;;;13.20;56.70;;;;;;6213624;28;20244;-81
2023/05/14 02:24:56;;;;;;;8.10;7.60;;;13.30;56.50;;;;;;6201499;28;20261;-82
2023/05/14 02:27:59;;;;;;;7.13;6.73;;;13.30;56.30;;;;;;6207996;28;20235;-81
2023/05/14 02:31:04;;;;;;;7.83;7.20;;;13.30;56.20;;;;;;6204514;28;20294;-83
2023/05/14 02:34:07;;;;;;;7.30;6.80;;;13.30;56.10;;;;;;6207645;28;20871;-79
2023/05/14 02:37:10;;;;;;;6.33;6.03;;;13.40;56.00;;;;;;6219130;28;20316;-82
2023/05/14 02:40:14;;;;;;;8.67;7.53;;;13.40;56.00;;;;;;6209641;28;20719;-80
2023/05/14 02:43:20;;;;;;;6.80;6.40;;;13.40;56.00;;;;;;6209216;28;20235;-81
2023/05/14 02:46:23;;;;;;;6.37;6.07;;;13.40;56.00;;;;;;6210183;28;20239;-81
2023/05/14 02:49:26;;;;;;;6.70;6.40;;;13.40;56.10;;;;;;6198812;28;20236;-81
2023/05/14 02:52:29;;;;;;;7.67;7.27;;;13.40;56.00;;;;;;6204609;28;20267;-81
2023/05/14 02:55:35;;;;;;;6.70;6.40;;;13.50;55.80;;;;;;6206026;28;20239;-82
2023/05/14 02:58:38;;;;;;;7.03;6.40;;;13.40;55.70;;;;;;6237025;28;20236;-80
2023/05/14 03:01:41;;;;;;;6.70;6.40;;;13.50;55.70;;;;;;6243806;28;20295;-78
2023/05/14 03:04:45;;;;;;;6.93;6.37;;;13.40;55.70;;;;;;6239359;28;20282;-80
2023/05/14 03:07:50;;;;;;;6.23;5.80;;;13.50;55.80;;;;;;6241133;28;20219;-79
2023/05/14 03:10:54;;;;;;;7.40;6.90;;;13.50;55.70;;;;;;6238532;28;20279;-82
2023/05/14 03:13:57;;;;;;;6.67;6.23;;;13.50;55.80;;;;;;6236918;28;20219;-78
2023/05/14 03:17:02;;;;;;;6.90;6.50;;;13.50;55.80;;;;;;6233346;28;20296;-80
2023/05/14 03:20:07;;;;;;;6.30;5.90;;;13.40;55.70;;;;;;6238389;28;20227;-82
2023/05/14 03:23:10;;;;;;;6.27;5.97;;;13.50;55.70;;;;;;6236067;28;20246;-78
2023/05/14 03:26:14;;;;;;;6.57;6.17;;;13.50;55.70;;;;;;6231341;28;20238;-79
2023/05/14 03:29:17;;;;;;;6.60;6.07;;;13.50;55.70;;;;;;6210040;28;20786;-83
2023/05/14 03:32:21;;;;;;;6.70;6.30;;;13.50;55.60;;;;;;6197572;28;20253;-81
2023/05/14 03:35:24;;;;;;;7.40;7.00;;;13.50;55.50;;;;;;6193152;28;20244;-84
2023/05/14 03:38:27;;;;;;;7.77;7.20;;;13.50;55.60;;;;;;6207202;28;20305;-82
2023/05/14 03:41:32;;;;;;;7.20;6.80;;;13.50;54.70;;;;;;6207175;28;20235;-82
2023/05/14 03:44:35;;;;;;;7.23;6.53;;;13.60;54.60;;;;;;6202091;28;20244;-85
2023/05/14 03:47:38;;;;;;;6.93;6.63;;;13.60;54.60;;;;;;6202094;28;20254;-83
2023/05/14 03:50:42;;;;;;;6.73;6.33;;;13.70;54.00;;;;;;6203168;28;20240;-81
2023/05/14 03:53:45;;;;;;;9.87;8.27;;;13.70;54.00;;;;;;6212513;28;20333;-80
2023/05/14 03:56:49;;;;;;;6.53;6.23;;;13.70;54.20;;;;;;6218258;28;20270;-84
2023/05/14 03:59:52;;;;;;;6.27;5.97;;;13.70;54.20;;;;;;6212778;28;20243;-82
2023/05/14 04:02:55;;;;;;;7.33;6.63;;;13.70;54.20;;;;;;6212528;28;20239;-81
2023/05/14 04:05:59;;;;;;;7.10;6.57;;;13.70;54.30;;;;;;6199653;28;20663;-82
2023/05/14 04:09:02;;;;;;;6.17;5.87;;;13.70;54.40;;;;;;6183130;28;20723;-83
2023/05/14 04:12:08;;;;;;;7.17;6.57;;;13.70;54.60;;;;;;6208912;28;20241;-81
2023/05/14 04:15:12;;;;;;;6.80;6.50;;;13.70;54.60;;;;;;6217464;28;20286;-82
2023/05/14 04:18:16;;;;;;;6.30;6.00;;;13.70;54.90;;;;;;6201511;28;20235;-79
2023/05/14 04:21:19;;;;;;;6.30;6.03;;;13.60;55.00;;;;;;6193816;28;20242;-75
2023/05/14 04:24:22;;;;;;;5.73;5.53;;;13.60;55.20;;;;;;6192291;28;20560;-83
2023/05/14 04:27:26;;;;;;;6.20;5.80;;;13.60;55.30;;;;;;6189219;28;20253;-84
2023/05/14 04:30:29;;;;;;;6.80;6.40;;;13.60;55.30;;;;;;6209008;28;20346;-82
2023/05/14 04:33:33;;;;;;;6.03;5.73;;;13.60;55.50;;;;;;6215387;28;20231;-83
2023/05/14 04:36:36;;;;;;;6.33;6.00;;;13.60;55.60;;;;;;6209292;28;20322;-82
2023/05/14 04:39:39;;;;;;;5.97;5.77;;;13.50;55.90;;;;;;6205741;28;20234;-80
2023/05/14 04:42:43;;;;;;;6.87;6.47;;;13.50;56.10;;;;;;6200577;28;20286;-82
2023/05/14 04:45:46;;;;;;;7.37;6.67;;;13.50;55.90;;;;;;6209854;28;20247;-82
2023/05/14 04:48:50;;;;;;;7.73;7.10;;;13.50;56.10;;;;;;6214441;28;20236;-80
2023/05/14 04:51:53;;;;;;;6.93;6.63;;;13.60;55.90;;;;;;6203206;28;20247;-81
2023/05/14 04:54:56;;;;;;;7.33;6.83;;;13.70;56.10;;;;;;6192652;28;20246;-83
2023/05/14 04:58:01;;;;;;;6.50;6.10;;;13.90;55.50;;;;;;6207878;28;20243;-81
2023/05/14 05:01:05;;;;;;;7.67;7.17;;;14.10;55.60;;;;;;6211685;28;20236;-81
2023/05/14 05:04:08;;;;;;;6.90;6.40;;;14.30;55.30;;;;;;6203897;28;20316;-81
2023/05/14 05:07:12;;;;;;;7.97;7.17;;;14.50;54.60;;;;;;6210551;28;20318;-81
2023/05/14 05:10:17;;;;;;;7.73;7.00;;;14.80;53.90;;;;;;6209550;28;20657;-80
2023/05/14 05:13:25;;;;;;;6.47;6.17;;;15.00;52.50;;;;;;6205230;28;20238;-82
2023/05/14 05:16:28;;;;;;;7.43;6.80;;;15.00;52.30;;;;;;6207815;28;20271;-81
2023/05/14 05:19:31;;;;;;;7.43;6.87;;;15.10;52.20;;;;;;6211678;28;20231;-81
2023/05/14 05:22:46;;;;;;;7.70;7.00;;;14.90;52.80;;;;;;6203431;28;20279;-81
2023/05/14 05:25:49;;;;;;;7.80;7.20;;;14.70;52.60;;;;;;6213910;28;20230;-78
2023/05/14 05:28:54;;;;;;;7.63;7.03;;;14.60;52.10;;;;;;6221467;28;20955;-80
2023/05/14 05:31:57;;;;;;;8.00;7.30;;;14.60;52.30;;;;;;6209869;28;20240;-79
2023/05/14 05:35:03;;;;;;;7.00;6.60;;;14.70;52.50;;;;;;6198234;28;20255;-82
2023/05/14 05:38:06;;;;;;;7.43;6.93;;;14.80;53.10;;;;;;6188159;28;20364;-83
2023/05/14 05:41:09;;;;;;;7.20;6.57;;;15.00;51.80;;;;;;6175513;28;20807;-83
2023/05/14 05:44:14;;;;;;;7.80;7.07;;;15.00;52.20;;;;;;6185387;28;20235;-82
2023/05/14 05:47:17;;;;;;;7.13;6.63;;;15.10;52.10;;;;;;6179363;28;20240;-83
2023/05/14 05:50:21;;;;;;;7.40;6.90;;;15.10;51.90;;;;;;6183270;28;20326;-81
2023/05/14 05:53:24;;;;;;;8.20;6.70;;;15.20;51.90;;;;;;6188924;28;20259;-82
2023/05/14 05:56:27;;;;;;;7.30;6.57;;;15.20;51.80;;;;;;6173094;28;20756;-83
2023/05/14 05:59:32;;;;;;;7.47;6.97;;;15.30;52.40;;;;;;6186659;28;20366;-82
2023/05/14 06:02:35;;;;;;;7.17;6.50;;;15.30;51.70;;;;;;6187098;28;20631;-81
2023/05/14 06:05:38;;;;;;;7.17;6.50;;;15.50;52.50;;;;;;6160495;28;20243;-81
2023/05/14 06:08:42;;;;;;;6.73;6.10;;;15.60;51.90;;;;;;6180099;28;20267;-79
2023/05/14 06:11:47;;;;;;;6.53;6.03;;;15.80;52.30;;;;;;6182086;28;20247;-80
2023/05/14 06:14:54;;;;;;;7.17;6.53;;;16.00;51.20;;;;;;6185139;28;20239;-81
2023/05/14 06:17:57;;;;;;;7.37;6.77;;;16.10;50.70;;;;;;6187795;28;20251;-83
2023/05/14 06:21:00;;;;;;;7.63;7.03;;;16.30;50.40;;;;;;6178378;28;20292;-82
2023/05/14 06:24:03;;;;;;;6.97;6.47;;;16.40;50.50;;;;;;6176168;28;20238;-80
2023/05/14 06:27:07;;;;;;;8.30;7.30;;;16.30;50.10;;;;;;6183182;28;21369;-82
2023/05/14 06:30:12;;;;;;;7.60;7.00;;;16.30;50.40;;;;;;6186859;28;20236;-82
2023/05/14 06:33:16;;;;;;;7.60;6.97;;;16.10;50.10;;;;;;6203317;28;20259;-82
2023/05/14 06:36:21;;;;;;;7.53;6.93;;;16.10;50.10;;;;;;6201999;28;20236;-81
2023/05/14 06:39:24;;;;;;;6.90;6.40;;;16.10;50.70;;;;;;6208912;28;20232;-82
2023/05/14 06:42:30;;;;;;;6.27;5.97;;;16.20;51.00;;;;;;6213219;28;20236;-82
2023/05/14 06:45:35;;;;;;;6.57;6.27;;;16.40;50.80;;;;;;6209411;28;20247;-81
2023/05/14 06:48:38;;;;;;;7.07;6.50;;;16.60;50.60;;;;;;6204401;28;20385;-81
2023/05/14 06:51:41;;;;;;;8.10;6.80;;;16.80;50.50;;;;;;6203434;28;20244;-80
2023/05/14 06:54:44;;;;;;;6.70;6.20;;;16.90;50.20;;;;;;6204740;28;20236;-81
2023/05/14 06:57:49;;;;;;;6.17;5.83;;;17.00;49.80;;;;;;6207403;28;20251;-81
2023/05/14 07:00:54;;;;;;;7.17;6.47;;;17.20;49.70;;;;;;6205251;28;20385;-82
2023/05/14 07:03:57;;;;;;;7.07;6.40;;;17.20;49.50;;;;;;6208510;28;20274;-80
2023/05/14 07:07:04;;;;;;;6.20;5.80;;;17.30;49.50;;;;;;6192581;28;20972;-80
2023/05/14 07:10:08;;;;;;;6.60;6.10;;;17.40;49.80;;;;;;6196333;28;20239;-83
2023/05/14 07:13:11;;;;;;;6.73;6.27;;;17.40;49.10;;;;;;6207756;28;20232;-82
2023/05/14 07:16:16;;;;;;;6.07;5.67;;;17.40;49.70;;;;;;6192724;28;20678;-79
2023/05/14 07:19:19;;;;;;;9.13;6.23;;;17.50;50.00;;;;;;6219046;28;20262;-82
2023/05/14 07:22:22;;;;;;;5.73;5.43;;;17.60;49.10;;;;;;6207286;28;20265;-81
2023/05/14 07:25:25;;;;;;;6.87;6.17;;;17.70;50.00;;;;;;6206857;28;20227;-81
2023/05/14 07:28:28;;;;;;;5.60;5.30;;;17.80;49.20;;;;;;6205305;28;20231;-82
2023/05/14 07:31:32;;;;;;;5.97;5.67;;;17.80;49.30;;;;;;6201658;28;20239;-82
2023/05/14 07:34:35;;;;;;;5.90;5.60;;;18.00;49.90;;;;;;6200588;28;20239;-83
2023/05/14 07:37:39;;;;;;;6.10;5.67;;;18.20;48.60;;;;;;6203892;28;20251;-77
2023/05/14 07:40:42;;;;;;;6.90;5.90;;;18.40;49.30;;;;;;6206872;28;20454;-80
2023/05/14 07:43:47;;;;;;;6.67;6.10;;;18.60;48.00;;;;;;6210407;28;20236;-80
2023/05/14 07:46:51;;;;;;;6.07;5.60;;;18.70;48.00;;;;;;6210636;28;20377;-80
2023/05/14 07:49:55;;;;;;;5.90;5.33;;;18.70;48.40;;;;;;6208463;28;20273;-82
2023/05/14 07:52:58;;;;;;;5.80;5.30;;;18.80;48.30;;;;;;6207037;28;20636;-80
2023/05/14 07:56:01;;;;;;;5.97;5.47;;;19.00;48.60;;;;;;6212619;28;20239;-83
2023/05/14 07:59:05;;;;;;;5.70;5.40;;;19.10;47.90;;;;;;6202091;28;20872;-80
2023/05/14 08:02:11;;;;;;;7.53;5.30;;;19.40;47.70;;;;;;6200093;28;20431;-81
2023/05/14 08:05:15;;;;;;;5.27;4.97;;;19.70;47.60;;;;;;6203848;28;20355;-80
2023/05/14 08:08:18;;;;;;;4.70;4.50;;;20.00;46.70;;;;;;6206688;28;20227;-82
2023/05/14 08:11:21;;;;;;;5.33;4.80;;;19.90;46.70;;;;;;6207739;28;20231;-80
2023/05/14 08:14:24;;;;;;;7.50;5.23;;;19.90;46.10;;;;;;6212508;28;20667;-82
2023/05/14 08:17:29;;;;;;;5.47;5.00;;;20.10;46.50;;;;;;6211450;28;20735;-79
2023/05/14 08:20:32;;;;;;;4.77;4.47;;;20.30;45.80;;;;;;6215143;28;20250;-81
2023/05/14 08:23:35;;;;;;;4.60;4.20;;;20.50;45.30;;;;;;6206849;28;20282;-81
2023/05/14 08:26:38;;;;;;;5.43;4.97;;;20.60;46.10;;;;;;6206006;28;20722;-82
2023/05/14 08:29:41;;;;;;;4.87;4.50;;;20.80;44.60;;;;;;6210345;28;20236;-80
2023/05/14 08:32:46;;;;;;;4.40;4.00;;;20.80;44.20;;;;;;6193036;28;20318;-82
2023/05/14 08:35:50;;;;;;;4.63;4.50;;;21.00;43.90;;;;;;6205561;28;20240;-80
2023/05/14 08:38:53;;;;;;;4.60;4.37;;;21.10;43.70;;;;;;6205278;28;20254;-83
2023/05/14 08:41:57;;;;;;;4.70;4.17;;;21.30;44.20;;;;;;6182845;28;20233;-80
2023/05/14 08:45:02;;;;;;;4.47;4.20;;;21.20;43.50;;;;;;6188436;28;20236;-82
2023/05/14 08:48:10;;;;;;;4.40;4.00;;;21.30;44.00;;;;;;6179277;28;20630;-79
2023/05/14 08:51:14;;;;;;;5.37;4.40;;;21.50;43.60;;;;;;6191459;28;20855;-83
2023/05/14 08:54:18;;;;;;;4.93;4.53;;;21.50;43.10;;;;;;6212809;28;20235;-81
2023/05/14 08:57:23;;;;;;;4.23;3.93;;;21.60;42.70;;;;;;6153319;28;20319;-80
2023/05/14 09:00:26;;;;;;;4.67;4.40;;;21.50;44.00;;;;;;6198417;28;20569;-80
2023/05/14 09:03:32;;;;;;;5.10;4.70;;;21.50;44.00;;;;;;6211495;28;20236;-80
2023/05/14 09:06:36;;;;;;;5.27;4.83;;;21.70;43.40;;;;;;6209356;28;20266;-80
2023/05/14 09:09:43;;;;;;;4.23;4.00;;;22.00;42.90;;;;;;6206582;28;20835;-81
2023/05/14 09:12:46;;;;;;;4.40;4.10;;;22.00;42.50;;;;;;6203219;28;20243;-82
2023/05/14 09:15:50;;;;;;;4.57;4.23;;;22.10;42.50;;;;;;6184885;28;20261;-83
2023/05/14 09:18:55;;;;;;;4.40;4.00;;;22.30;42.40;;;;;;6203046;28;20322;-80
2023/05/14 09:21:58;;;;;;;4.53;4.33;;;22.30;42.10;;;;;;6202435;28;20246;-82
2023/05/14 09:25:04;;;;;;;4.37;4.07;;;22.30;41.90;;;;;;6202213;28;20679;-79
2023/05/14 09:28:09;;;;;;;4.47;4.17;;;22.50;41.70;;;;;;6200896;28;20243;-82
2023/05/14 09:31:15;;;;;;;4.60;4.30;;;22.40;42.10;;;;;;6192281;28;20242;-82
2023/05/14 09:34:26;;;;;;;7.97;4.47;;;22.30;41.00;;;;;;6201027;28;20880;-80
2023/05/14 09:37:29;;;;;;;4.43;4.17;;;22.30;41.70;;;;;;6194298;28;20232;-79
2023/05/14 09:40:32;;;;;;;5.03;4.63;;;22.10;42.50;;;;;;6212232;28;20251;-80
2023/05/14 09:43:36;;;;;;;4.30;4.00;;;22.10;41.70;;;;;;6208494;28;20235;-80
2023/05/14 09:46:38;;;;;;;5.00;4.57;;;22.10;42.60;;;;;;6199560;28;20251;-80
2023/05/14 09:49:43;;;;;;;4.63;4.37;;;22.10;42.30;;;;;;6202668;28;20254;-82
2023/05/14 09:52:46;;;;;;;4.90;4.60;;;22.10;42.00;;;;;;6202976;28;20246;-80
2023/05/14 09:55:49;;;;;;;4.67;4.30;;;22.00;41.60;;;;;;6218695;28;20915;-80
2023/05/14 09:58:53;;;;;;;4.40;4.20;;;22.00;41.70;;;;;;6199210;28;20243;-80
2023/05/14 10:01:58;;;;;;;4.40;4.00;;;21.70;41.50;;;;;;6198382;28;20239;-80
2023/05/14 10:05:05;;;;;;;4.80;4.40;;;21.50;41.80;;;;;;6217960;28;20231;-82
2023/05/14 10:08:13;;;;;;;4.47;4.07;;;21.50;41.90;;;;;;6192452;28;20247;-83
2023/05/14 10:11:21;;;;;;;5.13;4.63;;;21.40;41.50;;;;;;6218510;28;20243;-81
2023/05/14 10:14:27;;;;;;;4.90;4.30;;;21.40;41.80;;;;;;6215431;28;20322;-83
2023/05/14 10:17:34;;;;;;;4.53;4.23;;;21.30;42.10;;;;;;6209564;28;20242;-84
2023/05/14 10:20:40;;;;;;;5.23;4.33;;;21.20;42.20;;;;;;6202230;28;20239;-79
2023/05/14 10:23:43;;;;;;;6.00;4.53;;;21.30;41.90;;;;;;6203716;28;20235;-81
2023/05/14 10:26:47;;;;;;;4.73;4.43;;;21.20;41.90;;;;;;6213437;28;20242;-79
2023/05/14 10:29:54;;;;;;;4.77;4.37;;;21.10;42.10;;;;;;6215027;28;20242;-81
2023/05/14 10:33:07;;;;;;;4.20;4.00;;;21.10;42.40;;;;;;6171015;28;20243;-80
2023/05/14 10:36:13;;;;;;;4.63;4.30;;;21.10;42.20;;;;;;6213198;28;20255;-80
2023/05/14 10:39:16;;;;;;;4.83;4.43;;;21.40;42.50;;;;;;6195518;28;20269;-80
2023/05/14 10:42:22;;;;;;;6.13;3.93;;;21.60;41.50;;;;;;6209627;28;20231;-81
2023/05/14 10:45:26;;;;;;;4.50;4.20;;;21.80;41.60;;;;;;6201518;28;20343;-83
2023/05/14 10:48:29;;;;;;;4.20;4.00;;;21.90;41.60;;;;;;6213106;28;20235;-80
2023/05/14 10:51:36;;;;;;;4.73;4.33;;;21.70;41.60;;;;;;6203125;28;20263;-80
2023/05/14 10:54:39;;;;;;;4.70;4.40;;;21.60;41.80;;;;;;6190697;28;20232;-79
2023/05/14 10:57:44;;;;;;;4.30;4.03;;;21.50;41.90;;;;;;6186281;28;20303;-81
2023/05/14 11:00:48;;;;;;;4.53;4.30;;;21.40;42.30;;;;;;6209638;28;20235;-79
2023/05/14 11:03:54;;;;;;;4.40;4.20;;;21.30;42.50;;;;;;6197436;28;20327;-80
2023/05/14 11:07:01;;;;;;;4.40;4.20;;;21.30;42.60;;;;;;6206286;28;20246;-82
2023/05/14 11:10:08;;;;;;;5.50;4.27;;;21.00;42.10;;;;;;6205176;28;20318;-82
2023/05/14 11:13:12;;;;;;;4.43;4.23;;;20.80;42.50;;;;;;6208192;28;20244;-79
2023/05/14 11:16:17;;;;;;;4.90;4.60;;;20.50;43.10;;;;;;6203173;28;20253;-80
2023/05/14 11:19:26;;;;;;;4.50;4.30;;;20.40;43.50;;;;;;6194432;28;20251;-81
2023/05/14 11:22:30;;;;;;;5.13;4.50;;;20.30;42.90;;;;;;6201289;28;20235;-82
2023/05/14 11:25:33;;;;;;;5.33;4.30;;;20.30;43.30;;;;;;6206550;28;20231;-81
2023/05/14 11:28:37;;;;;;;4.33;3.93;;;20.30;43.30;;;;;;6205946;28;20256;-82
2023/05/14 11:31:41;;;;;;;4.73;4.40;;;20.20;43.50;;;;;;6216484;28;20879;-82
2023/05/14 11:34:44;;;;;;;5.03;4.77;;;20.30;44.10;;;;;;6204474;28;20235;-80
2023/05/14 11:37:52;;;;;;;4.60;4.20;;;20.30;43.40;;;;;;6196227;28;20231;-79
2023/05/14 11:40:55;;;;;;;4.63;4.20;;;20.60;43.20;;;;;;6207136;28;20382;-81
2023/05/14 11:43:58;;;;;;;5.00;4.23;;;20.80;43.20;;;;;;6195228;28;20325;-80
2023/05/14 11:47:03;;;;;;;4.77;4.30;;;21.00;43.30;;;;;;6211613;28;20253;-83
2023/05/14 11:50:07;;;;;;;6.10;4.50;;;21.10;42.80;;;;;;6205651;28;20240;-83
2023/05/14 11:53:17;;;;;;;5.27;4.97;;;21.20;43.30;;;;;;6207201;28;20239;-80
2023/05/14 11:56:21;;;;;;;4.77;4.40;;;21.10;43.80;;;;;;6203003;28;20235;-80
2023/05/14 11:59:25;;;;;;;5.57;5.10;;;21.00;43.30;;;;;;6206092;28;20833;-82
2023/05/14 12:02:28;;;;;;;5.00;4.80;;;20.90;43.20;;;;;;6202655;28;20244;-79
2023/05/14 12:05:32;;;;;;;5.93;4.40;;;21.00;43.40;;;;;;6193604;28;20236;-80
2023/05/14 12:08:37;;;;;;;4.93;4.53;;;21.00;43.30;;;;;;6226986;28;20232;-80
2023/05/14 12:11:40;;;;;;;4.40;4.20;;;21.10;43.00;;;;;;6236970;28;20240;-80
2023/05/14 12:14:44;;;;;;;4.70;4.50;;;21.30;42.90;;;;;;6231392;28;20741;-81
2023/05/14 12:17:50;;;;;;;6.43;4.53;;;21.50;43.00;;;;;;6199870;28;20247;-83
2023/05/14 12:20:54;;;;;;;4.83;4.53;;;21.80;42.70;;;;;;6210119;28;20247;-82
2023/05/14 12:23:59;;;;;;;4.57;4.47;;;22.10;42.50;;;;;;6216446;28;20330;-79
2023/05/14 12:27:03;;;;;;;5.40;4.90;;;22.50;42.10;;;;;;6214189;28;20246;-79
2023/05/14 12:30:08;;;;;;;5.27;4.83;;;22.80;42.60;;;;;;6213486;28;20240;-79
2023/05/14 12:33:15;;;;;;;4.83;4.57;;;22.80;42.90;;;;;;6206789;28;20605;-82
2023/05/14 12:36:18;;;;;;;4.97;4.67;;;22.80;42.00;;;;;;6207136;28;20302;-81
2023/05/14 12:39:25;;;;;;;5.70;4.60;;;22.90;42.10;;;;;;6210362;28;20235;-81
2023/05/14 12:42:28;;;;;;;4.93;4.73;;;22.70;41.30;;;;;;6205757;28;20247;-81
2023/05/14 12:45:31;;;;;;;5.00;4.70;;;22.60;41.20;;;;;;6201848;28;20234;-82
2023/05/14 12:48:34;;;;;;;4.93;4.60;;;22.50;41.10;;;;;;6213704;28;20665;-82
2023/05/14 12:51:38;;;;;;;4.43;4.33;;;22.30;40.70;;;;;;6210615;28;20720;-81
2023/05/14 12:54:42;;;;;;;4.30;4.00;;;22.30;40.50;;;;;;6208258;28;20261;-83
2023/05/14 12:57:46;;;;;;;4.90;4.70;;;22.20;41.10;;;;;;6205018;28;20307;-80
2023/05/14 13:00:49;;;;;;;4.57;4.37;;;22.20;40.60;;;;;;6204130;28;20227;-81
2023/05/14 13:03:52;;;;;;;4.00;3.80;;;22.30;40.80;;;;;;6206669;28;20832;-78
2023/05/14 13:06:55;;;;;;;4.40;4.10;;;22.30;40.80;;;;;;6199738;28;20262;-81
2023/05/14 13:09:59;;;;;;;4.60;4.30;;;22.50;40.60;;;;;;6201653;28;20269;-81
2023/05/14 13:13:02;;;;;;;4.77;4.47;;;22.30;40.80;;;;;;6209405;28;20240;-80
2023/05/14 13:16:06;;;;;;;4.40;4.10;;;21.90;40.70;;;;;;6198588;28;20251;-80
2023/05/14 13:19:09;;;;;;;4.83;4.50;;;21.60;41.10;;;;;;6202105;28;20247;-81
2023/05/14 13:22:13;;;;;;;4.67;4.27;;;21.30;40.70;;;;;;6202161;28;20381;-80
2023/05/14 13:25:17;;;;;;;4.77;4.40;;;21.10;41.60;;;;;;6205871;28;20250;-80
2023/05/14 13:28:20;;;;;;;4.30;4.10;;;21.00;41.80;;;;;;6211518;28;20234;-80
2023/05/14 13:31:23;;;;;;;4.43;4.13;;;20.90;41.60;;;;;;6213019;28;20235;-81
2023/05/14 13:34:26;;;;;;;4.57;4.30;;;21.00;41.70;;;;;;6206521;28;20235;-79
2023/05/14 13:37:30;;;;;;;4.50;4.30;;;21.00;41.90;;;;;;6212071;28;20753;-81
2023/05/14 13:40:34;;;;;;;4.33;4.07;;;21.10;42.00;;;;;;6212345;28;20255;-81
2023/05/14 13:43:37;;;;;;;4.60;4.30;;;21.10;42.60;;;;;;6214149;28;20270;-81
2023/05/14 13:46:41;;;;;;;4.43;4.23;;;21.20;41.80;;;;;;6220311;28;20338;-79
2023/05/14 13:49:44;;;;;;;4.17;4.03;;;21.30;41.80;;;;;;6218281;28;20231;-80
2023/05/14 13:52:47;;;;;;;4.67;4.37;;;21.40;41.60;;;;;;6190805;28;20749;-80
2023/05/14 13:55:55;;;;;;;4.70;4.30;;;21.30;41.60;;;;;;6188351;28;20239;-81
2023/05/14 13:58:58;;;;;;;6.03;4.23;;;21.20;41.30;;;;;;6214477;28;20236;-78
2023/05/14 14:02:02;;;;;;;4.73;4.40;;;21.10;41.40;;;;;;6214598;28;20247;-79
2023/05/14 14:05:06;;;;;;;4.37;4.17;;;21.20;41.50;;;;;;6216581;28;20246;-79
2023/05/14 14:08:10;;;;;;;4.67;4.47;;;21.10;41.90;;;;;;6223934;28;20227;-80
2023/05/14 14:11:27;;;;;;;5.27;4.40;;;21.20;42.30;;;;;;6222496;28;20231;-79
2023/05/14 14:14:30;;;;;;;4.50;4.30;;;21.30;42.00;;;;;;6192008;28;20238;-79
2023/05/14 14:17:33;;;;;;;4.43;4.20;;;21.30;41.60;;;;;;6215269;28;20243;-79
2023/05/14 14:20:36;;;;;;;4.07;3.97;;;21.40;42.00;;;;;;6217260;28;20236;-81
2023/05/14 14:23:39;;;;;;;4.70;4.30;;;21.50;43.50;;;;;;6195200;28;20880;-80
2023/05/14 14:26:44;;;;;;;5.10;4.80;;;21.60;42.90;;;;;;6196227;28;20236;-82
2023/05/14 14:29:47;;;;;;;6.30;4.67;;;21.70;42.80;;;;;;6190154;28;20228;-78
2023/05/14 14:32:51;;;;;;;5.37;4.90;;;21.70;42.50;;;;;;6214273;28;20236;-80
2023/05/14 14:35:54;;;;;;;5.27;4.80;;;21.90;42.40;;;;;;6218375;28;20256;-79
2023/05/14 14:38:58;;;;;;;3.70;3.60;;;21.90;41.70;;;;;;6197572;28;20236;-78
2023/05/14 14:42:02;;;;;;;3.90;3.70;;;22.00;42.10;;;;;;6206759;28;20408;-81
2023/05/14 14:45:06;;;;;;;3.93;3.77;;;22.20;42.20;;;;;;6211646;28;20326;-82
2023/05/14 14:48:26;;;;;;;4.13;3.93;;;22.30;42.00;;;;;;6209517;28;20248;-81
2023/05/14 14:51:30;;;;;;;4.10;4.00;;;22.40;41.50;;;;;;6204602;28;20241;-81
2023/05/14 14:54:33;;;;;;;4.50;4.30;;;22.50;40.70;;;;;;6200116;28;20245;-79
2023/05/14 14:57:37;;;;;;;4.20;4.00;;;22.40;40.20;;;;;;6192169;28;20236;-82
2023/05/14 15:00:40;;;;;;;4.70;4.03;;;22.30;40.20;;;;;;6189849;28;20229;-82
2023/05/14 15:03:44;;;;;;;4.23;3.93;;;22.40;40.30;;;;;;6167110;28;20327;-79
2023/05/14 15:06:47;;;;;;;4.50;4.10;;;22.30;39.70;;;;;;6208762;28;20275;-79
2023/05/14 15:09:50;;;;;;;4.03;3.90;;;22.20;40.40;;;;;;6215904;28;20227;-80
2023/05/14 15:12:57;;;;;;;4.17;3.97;;;22.30;40.60;;;;;;6210792;28;20247;-80
2023/05/14 15:16:00;;;;;;;4.93;4.60;;;22.30;40.50;;;;;;6199598;28;20231;-81
2023/05/14 15:19:04;;;;;;;4.10;3.80;;;22.40;39.80;;;;;;6212835;28;20588;-79
2023/05/14 15:22:07;;;;;;;4.73;4.43;;;22.40;40.80;;;;;;6202801;28;20633;-81
2023/05/14 15:25:11;;;;;;;5.17;4.60;;;22.20;40.40;;;;;;6202172;28;20235;-79
2023/05/14 15:28:18;;;;;;;10.43;8.37;;;22.10;40.10;;;;;;6203905;28;20247;-79
2023/05/14 15:31:21;;;;;;;5.07;4.67;;;21.90;40.90;;;;;;6212194;28;20239;-80
2023/05/14 15:34:25;;;;;;;4.97;4.77;;;21.80;40.70;;;;;;6210156;28;20246;-80
2023/05/14 15:37:28;;;;;;;5.07;4.77;;;21.70;40.80;;;;;;6207281;28;20239;-83
2023/05/14 15:40:31;;;;;;;5.27;4.73;;;21.50;40.90;;;;;;6211747;28;20259;-80
2023/05/14 15:43:36;;;;;;;5.07;4.70;;;21.40;40.60;;;;;;6211400;28;20720;-81
2023/05/14 15:46:39;;;;;;;5.63;4.83;;;21.30;41.20;;;;;;6203239;28;20235;-81
2023/05/14 15:49:42;;;;;;;4.43;4.13;;;21.10;41.10;;;;;;6212304;28;20236;-81
2023/05/14 15:52:45;;;;;;;5.03;4.23;;;21.10;41.20;;;;;;6205334;28;20321;-80
2023/05/14 15:55:48;;;;;;;4.53;4.33;;;21.00;41.40;;;;;;6206245;28;20736;-82
2023/05/14 15:58:53;;;;;;;4.60;4.20;;;20.90;41.40;;;;;;6220227;28;20613;-80